Time;durP1;ratioP1;P1;durP2;ratioP2;P2;SDS_P1;SDS_P2;PMS_P1;PMS_P2;Temp;Humidity;BMP_temperature;BMP_pressure;BME280_temperature;BME280_humidity;BME280_pressure;Samples;Min_cycle;Max_cycle;Signal;HPM_P1;HPM_P2
2022/09/23 00:00:47;;;;;;;6.00;4.00;;;;;;;8.91;nan;98373.47;5059951;28;20229;-71
2022/09/23 00:03:15;;;;;;;6.50;4.23;;;;;;;8.93;nan;98358.16;5059579;28;20201;-71
2022/09/23 00:05:42;;;;;;;6.07;3.90;;;;;;;8.84;nan;98354.06;5059645;28;20243;-70
2022/09/23 00:08:12;;;;;;;5.07;4.00;;;;;;;8.88;nan;98364.06;5059503;28;20617;-71
2022/09/23 00:10:40;;;;;;;4.43;4.03;;;;;;;8.92;nan;98361.84;5059808;28;20283;-71
2022/09/23 00:13:06;;;;;;;4.93;3.30;;;;;;;8.97;nan;98359.41;5059456;28;20209;-71
2022/09/23 00:15:38;;;;;;;4.30;3.63;;;;;;;8.98;nan;98355.72;5059802;28;20212;-71
2022/09/23 00:18:06;;;;;;;5.93;3.63;;;;;;;8.94;nan;98354.50;5060167;28;20200;-71
2022/09/23 00:20:35;;;;;;;5.93;4.27;;;;;;;8.95;nan;98364.06;5059731;28;20232;-71
2022/09/23 00:23:02;;;;;;;4.30;3.63;;;;;;;8.91;nan;98358.38;5060245;28;20205;-71
2022/09/23 00:25:29;;;;;;;3.87;3.47;;;;;;;8.90;nan;98362.03;5059770;28;20209;-71
2022/09/23 00:27:57;;;;;;;10.37;4.20;;;;;;;8.90;nan;98359.38;5059728;28;20254;-71
2022/09/23 00:30:24;;;;;;;4.07;3.67;;;;;;;8.93;nan;98366.13;5059316;28;20295;-71
2022/09/23 00:32:51;;;;;;;4.10;3.50;;;;;;;8.95;nan;98372.03;5059361;28;20219;-71
2022/09/23 00:35:18;;;;;;;4.30;3.90;;;;;;;8.93;nan;98358.16;5059560;28;20267;-71
2022/09/23 00:37:44;;;;;;;8.83;4.00;;;;;;;8.92;nan;98357.34;5059335;28;20209;-71
2022/09/23 00:40:12;;;;;;;4.77;3.70;;;;;;;8.92;nan;98359.19;5059550;28;20231;-71
2022/09/23 00:42:45;;;;;;;4.00;3.60;;;;;;;8.92;nan;98349.38;5059597;28;20209;-71
2022/09/23 00:45:11;;;;;;;4.00;3.47;;;;;;;8.96;nan;98355.91;5059629;28;20185;-71
2022/09/23 00:47:50;;;;;;;4.10;3.70;;;;;;;8.92;nan;98354.69;5059513;28;20232;-71
2022/09/23 00:50:22;;;;;;;4.83;4.30;;;;;;;8.76;nan;98347.13;5059496;28;20225;-71
2022/09/23 00:52:50;;;;;;;4.07;3.47;;;;;;;8.82;nan;98348.16;5056122;28;20198;-71
2022/09/23 00:55:22;;;;;;;6.17;3.40;;;;;;;8.85;nan;98343.28;5056251;28;20229;-71
2022/09/23 00:57:49;;;;;;;4.60;3.70;;;;;;;8.80;nan;98344.88;5056314;28;20200;-71
2022/09/23 01:00:15;;;;;;;4.80;3.70;;;;;;;8.78;nan;98344.28;5055090;28;20225;-71
2022/09/23 01:02:42;;;;;;;6.80;4.40;;;;;;;8.69;nan;98340.97;5056198;28;20211;-71
2022/09/23 01:05:09;;;;;;;4.53;3.87;;;;;;;8.69;nan;98342.81;5056147;28;20211;-71
2022/09/23 01:07:35;;;;;;;5.13;3.83;;;;;;;8.68;nan;98342.00;5055978;28;20210;-71
2022/09/23 01:10:02;;;;;;;4.07;3.70;;;;;;;8.66;nan;98341.41;5055687;28;20225;-71
2022/09/23 01:12:50;;;;;;;7.27;4.00;;;;;;;8.68;nan;98338.53;5054740;28;20403;-71
2022/09/23 01:15:32;;;;;;;4.20;3.80;;;;;;;8.59;nan;98334.41;5055880;28;20233;-71
2022/09/23 01:18:13;;;;;;;6.07;4.10;;;;;;;8.53;nan;98340.53;5055643;28;20632;-71
2022/09/23 01:20:49;;;;;;;4.07;3.73;;;;;;;8.59;nan;98339.72;5055487;28;20225;-71
2022/09/23 01:23:57;;;;;;;7.20;3.93;;;;;;;8.40;nan;98340.47;5055508;28;20255;-71
2022/09/23 01:26:56;;;;;;;4.47;3.90;;;;;;;8.40;nan;98338.66;5033465;28;20257;-71
2022/09/23 01:29:38;;;;;;;7.57;4.13;;;;;;;8.41;nan;98334.19;5054462;28;20210;-71
2022/09/23 01:32:36;;;;;;;5.20;3.87;;;;;;;8.31;nan;98336.34;5054507;28;20193;-71
2022/09/23 01:35:29;;;;;;;7.70;4.03;;;;;;;8.22;nan;98330.41;5055243;28;20205;-71
2022/09/23 01:38:22;;;;;;;5.90;4.50;;;;;;;8.33;nan;98324.56;5055281;28;20281;-71
2022/09/23 01:41:11;;;;;;;5.93;3.90;;;;;;;8.35;nan;98324.34;5055172;28;20726;-71
2022/09/23 01:44:03;;;;;;;6.83;4.20;;;;;;;8.33;nan;98324.56;5055432;28;20197;-70
2022/09/23 01:46:35;;;;;;;4.37;3.90;;;;;;;8.32;nan;98316.81;5055055;28;20636;-71
2022/09/23 01:49:10;;;;;;;4.97;4.57;;;;;;;8.30;nan;98313.53;5055345;28;20197;-71
2022/09/23 01:51:46;;;;;;;7.50;4.67;;;;;;;8.33;nan;98318.44;5054063;28;20212;-71
2022/09/23 01:54:24;;;;;;;4.87;4.43;;;;;;;8.34;nan;98314.78;5055159;28;20236;-71
2022/09/23 01:56:56;;;;;;;6.47;4.53;;;;;;;8.27;nan;98311.28;5055216;28;20193;-71
2022/09/23 01:59:31;;;;;;;6.50;4.87;;;;;;;8.20;nan;98316.53;5055087;28;20252;-71
2022/09/23 02:02:15;;;;;;;6.10;4.50;;;;;;;8.19;nan;98309.59;5055107;28;20193;-71
2022/09/23 02:04:50;;;;;;;5.30;4.80;;;;;;;8.17;nan;98308.16;5053658;28;20194;-71
2022/09/23 02:07:39;;;;;;;5.10;4.60;;;;;;;8.13;nan;98318.34;5054938;28;20193;-71
2022/09/23 02:10:13;;;;;;;4.87;4.47;;;;;;;8.12;nan;98308.75;5055359;28;20225;-71
2022/09/23 02:12:44;;;;;;;5.37;4.73;;;;;;;8.00;nan;98309.50;5053766;28;20197;-71
2022/09/23 02:15:16;;;;;;;5.33;4.73;;;;;;;7.97;nan;98301.97;5053527;28;20233;-71
2022/09/23 02:17:49;;;;;;;6.97;5.57;;;;;;;8.04;nan;98302.78;5054805;28;20217;-71
2022/09/23 02:20:30;;;;;;;5.87;5.27;;;;;;;8.00;nan;98298.91;5053938;28;20229;-71
2022/09/23 02:23:05;;;;;;;5.80;5.03;;;;;;;7.97;nan;98307.25;5054653;28;20563;-71
2022/09/23 02:25:42;;;;;;;5.20;4.70;;;;;;;7.95;nan;98299.50;5054642;28;20189;-71
2022/09/23 02:28:14;;;;;;;6.63;5.00;;;;;;;7.93;nan;98304.19;5053624;28;20189;-71
2022/09/23 02:30:53;;;;;;;6.30;5.23;;;;;;;7.94;nan;98300.53;5054353;28;20233;-71
2022/09/23 02:33:37;;;;;;;5.50;4.87;;;;;;;7.97;nan;98304.63;5037573;28;20276;-71
2022/09/23 02:36:13;;;;;;;6.23;5.40;;;;;;;7.93;nan;98293.59;5053220;28;20636;-71
2022/09/23 02:38:52;;;;;;;7.40;5.27;;;;;;;7.94;nan;98302.34;5054368;28;20193;-71
2022/09/23 02:41:35;;;;;;;6.83;5.50;;;;;;;7.95;nan;98301.31;5053067;28;20229;-71
2022/09/23 02:44:08;;;;;;;6.97;5.17;;;;;;;7.94;nan;98297.88;5054241;28;20189;-71
2022/09/23 02:46:36;;;;;;;6.00;5.27;;;;;;;7.88;nan;98303.13;5054215;28;20186;-70
2022/09/23 02:49:10;;;;;;;8.07;5.40;;;;;;;7.77;nan;98293.91;5054152;28;20209;-71
2022/09/23 02:51:39;;;;;;;6.17;5.50;;;;;;;7.81;nan;98294.34;5053031;28;20212;-71
2022/09/23 02:54:13;;;;;;;5.97;5.37;;;;;;;7.80;nan;98284.75;5054793;28;20255;-71
2022/09/23 02:56:40;;;;;;;6.83;5.80;;;;;;;7.73;nan;98291.84;5053903;28;20198;-71
2022/09/23 02:59:08;;;;;;;9.20;5.60;;;;;;;7.70;nan;98281.66;5053912;28;20205;-71
2022/09/23 03:02:16;;;;;;;6.47;4.77;;;;;;;7.72;nan;98284.91;5053907;28;20297;-71
2022/09/23 03:05:16;;;;;;;6.53;5.13;;;;;;;7.67;nan;98282.88;5050361;28;20228;-71
2022/09/23 03:07:55;;;;;;;6.73;5.20;;;;;;;7.65;nan;98276.94;5053557;28;20284;-71
2022/09/23 03:10:40;;;;;;;6.87;5.20;;;;;;;7.60;nan;98273.28;5053030;28;20221;-71
2022/09/23 03:13:19;;;;;;;7.27;5.23;;;;;;;7.64;nan;98271.88;5053574;28;20193;-71
2022/09/23 03:16:13;;;;;;;6.43;4.87;;;;;;;7.61;nan;98275.69;5052925;28;20220;-71
2022/09/23 03:19:07;;;;;;;5.93;5.00;;;;;;;7.61;nan;98283.63;5053642;28;20194;-71
2022/09/23 03:21:49;;;;;;;5.23;4.70;;;;;;;7.57;nan;98281.59;5052429;28;20208;-71
2022/09/23 03:24:17;;;;;;;6.60;4.93;;;;;;;7.63;nan;98288.72;5052561;28;20186;-71
2022/09/23 03:26:46;;;;;;;5.40;4.87;;;;;;;7.56;nan;98285.25;5051954;28;20575;-71
2022/09/23 03:29:15;;;;;;;8.00;5.53;;;;;;;7.54;nan;98290.72;5053287;28;20263;-71
2022/09/23 03:31:43;;;;;;;10.10;5.40;;;;;;;7.51;nan;98282.38;5053336;28;20227;-71
2022/09/23 03:34:24;;;;;;;5.93;4.97;;;;;;;7.43;nan;98291.25;5053226;28;20229;-71
2022/09/23 03:37:29;;;;;;;6.10;5.07;;;;;;;7.43;nan;98285.97;5053396;28;20199;-71
2022/09/23 03:40:18;;;;;;;7.17;5.70;;;;;;;7.46;nan;98282.13;5053113;28;20227;-71
2022/09/23 03:42:47;;;;;;;6.90;5.77;;;;;;;7.50;nan;98280.72;5053082;28;20583;-71
2022/09/23 03:45:18;;;;;;;7.00;5.40;;;;;;;7.52;nan;98274.22;5052991;28;20197;-71
2022/09/23 03:47:46;;;;;;;6.60;5.57;;;;;;;7.51;nan;98279.72;5052147;28;20584;-71
2022/09/23 03:50:16;;;;;;;6.13;5.53;;;;;;;7.54;nan;98276.66;5052857;28;20601;-71
2022/09/23 03:52:42;;;;;;;7.03;5.50;;;;;;;7.56;nan;98266.72;5053584;28;20205;-71
2022/09/23 03:55:09;;;;;;;6.30;5.47;;;;;;;7.54;nan;98266.09;5052919;28;20231;-71
2022/09/23 03:57:36;;;;;;;7.07;5.70;;;;;;;7.55;nan;98262.47;5053224;28;20205;-71
2022/09/23 04:00:05;;;;;;;6.97;5.67;;;;;;;7.48;nan;98259.78;5052995;28;20225;-71
2022/09/23 04:02:32;;;;;;;7.60;5.60;;;;;;;7.53;nan;98257.34;5052789;28;20208;-71
2022/09/23 04:04:58;;;;;;;8.57;5.87;;;;;;;7.55;nan;98263.25;5052925;28;20197;-71
2022/09/23 04:07:25;;;;;;;6.37;5.37;;;;;;;7.52;nan;98257.53;5052971;28;20205;-71
2022/09/23 04:09:53;;;;;;;6.93;5.60;;;;;;;7.47;nan;98252.81;5052978;28;20221;-71
2022/09/23 04:12:19;;;;;;;8.20;5.87;;;;;;;7.39;nan;98252.16;5052633;28;20673;-71
2022/09/23 04:14:46;;;;;;;7.47;5.57;;;;;;;7.41;nan;98256.25;5052916;28;20232;-71
2022/09/23 04:17:12;;;;;;;5.97;5.37;;;;;;;7.38;nan;98253.19;5052968;28;20201;-71
2022/09/23 04:19:39;;;;;;;9.73;5.80;;;;;;;7.40;nan;98248.50;5052751;28;20221;-71
2022/09/23 04:22:08;;;;;;;7.10;5.60;;;;;;;7.48;nan;98235.97;5052537;28;20208;-71
2022/09/23 04:24:35;;;;;;;6.67;5.43;;;;;;;7.50;nan;98238.38;5052809;28;20209;-71
2022/09/23 04:27:01;;;;;;;5.80;5.27;;;;;;;7.43;nan;98242.84;5054372;28;20205;-71
2022/09/23 04:29:28;;;;;;;7.53;5.37;;;;;;;7.44;nan;98234.72;5056446;28;20611;-71
2022/09/23 04:31:54;;;;;;;5.83;5.20;;;;;;;7.40;nan;98237.94;5056343;28;20194;-71
2022/09/23 04:34:21;;;;;;;6.30;5.53;;;;;;;7.47;nan;98238.81;5056384;28;20328;-71
2022/09/23 04:36:48;;;;;;;7.47;5.27;;;;;;;7.42;nan;98235.91;5056387;28;20211;-71
2022/09/23 04:39:16;;;;;;;6.20;5.60;;;;;;;7.42;nan;98243.84;5056042;28;20212;-71
2022/09/23 04:41:43;;;;;;;10.40;5.40;;;;;;;7.45;nan;98238.16;5055914;28;20319;-71
2022/09/23 04:44:12;;;;;;;6.47;5.17;;;;;;;7.34;nan;98244.00;5055819;28;20213;-71
2022/09/23 04:46:39;;;;;;;7.87;5.40;;;;;;;7.29;nan;98238.47;5056084;28;20208;-71
2022/09/23 04:49:07;;;;;;;7.27;5.10;;;;;;;7.17;nan;98242.66;5055822;28;20216;-71
2022/09/23 04:51:33;;;;;;;5.63;5.00;;;;;;;7.05;nan;98239.72;5056263;28;20225;-71
2022/09/23 04:54:00;;;;;;;6.87;5.67;;;;;;;7.12;nan;98245.91;5056105;28;20213;-71
2022/09/23 04:56:30;;;;;;;5.97;5.33;;;;;;;7.19;nan;98246.75;5055912;28;20225;-71
2022/09/23 04:58:57;;;;;;;5.70;5.03;;;;;;;7.16;nan;98241.03;5056534;28;20205;-71
2022/09/23 05:01:26;;;;;;;8.03;5.57;;;;;;;7.11;nan;98246.88;5055566;28;20278;-71
2022/09/23 05:03:56;;;;;;;7.10;5.83;;;;;;;7.11;nan;98246.88;5055679;28;20201;-71
2022/09/23 05:06:22;;;;;;;7.37;5.27;;;;;;;7.16;nan;98248.97;5055650;28;20205;-71
2022/09/23 05:08:51;;;;;;;8.57;6.00;;;;;;;7.06;nan;98251.13;5055564;28;20642;-71
2022/09/23 05:11:18;;;;;;;7.60;5.30;;;;;;;7.12;nan;98250.34;5055772;28;20236;-71
2022/09/23 05:13:46;;;;;;;7.53;5.53;;;;;;;7.10;nan;98258.47;5055780;28;20209;-71
2022/09/23 05:16:13;;;;;;;6.20;5.37;;;;;;;7.06;nan;98256.41;5055334;28;20228;-71
2022/09/23 05:18:42;;;;;;;6.73;5.33;;;;;;;7.10;nan;98260.31;5055589;28;20291;-71
2022/09/23 05:21:17;;;;;;;6.00;5.07;;;;;;;7.02;nan;98260.44;5055340;28;20235;-71
2022/09/23 05:23:53;;;;;;;7.87;5.70;;;;;;;7.14;nan;98259.72;5054844;28;20212;-71
2022/09/23 05:26:19;;;;;;;5.90;5.30;;;;;;;7.21;nan;98263.25;5055009;28;20624;-71
2022/09/23 05:28:46;;;;;;;8.87;5.60;;;;;;;7.24;nan;98262.03;5055305;28;20201;-71
2022/09/23 05:31:15;;;;;;;6.53;5.90;;;;;;;7.30;nan;98261.25;5055030;28;20229;-71
2022/09/23 05:33:44;;;;;;;5.97;5.37;;;;;;;7.24;nan;98259.41;5055313;28;20205;-71
2022/09/23 05:36:12;;;;;;;8.20;5.30;;;;;;;7.29;nan;98264.91;5054743;28;20257;-70
2022/09/23 05:38:39;;;;;;;8.97;5.73;;;;;;;7.38;nan;98261.13;5054195;28;20244;-71
2022/09/23 05:41:08;;;;;;;8.70;5.30;;;;;;;7.43;nan;98264.78;5054509;28;20719;-71
2022/09/23 05:43:35;;;;;;;8.27;6.00;;;;;;;7.43;nan;98264.00;5054868;28;20205;-70
2022/09/23 05:46:13;;;;;;;7.90;6.00;;;;;;;7.52;nan;98266.28;5054891;28;20210;-71
2022/09/23 05:48:40;;;;;;;6.77;5.80;;;;;;;7.61;nan;98270.41;5055217;28;20189;-71
2022/09/23 05:51:11;;;;;;;8.50;6.23;;;;;;;7.67;nan;98260.88;5054832;28;20225;-70
2022/09/23 05:53:39;;;;;;;8.80;6.27;;;;;;;7.76;nan;98262.34;5054877;28;20186;-71
2022/09/23 05:56:07;;;;;;;8.93;6.27;;;;;;;7.84;nan;98265.66;5054570;28;20229;-71
2022/09/23 05:58:33;;;;;;;10.17;6.17;;;;;;;7.87;nan;98264.47;5054426;28;20251;-71
2022/09/23 06:00:59;;;;;;;8.07;6.03;;;;;;;7.86;nan;98263.63;5054606;28;20221;-71
2022/09/23 06:03:26;;;;;;;7.10;5.80;;;;;;;7.92;nan;98262.84;5055627;28;20213;-71
2022/09/23 06:05:54;;;;;;;8.77;6.07;;;;;;;8.00;nan;98259.19;5054283;28;20205;-70
2022/09/23 06:08:20;;;;;;;9.00;6.00;;;;;;;8.08;nan;98259.84;5054273;28;20228;-71
2022/09/23 06:10:47;;;;;;;7.60;5.77;;;;;;;8.09;nan;98268.59;5054466;28;20239;-71
2022/09/23 06:13:14;;;;;;;6.87;6.20;;;;;;;8.11;nan;98263.94;5054537;28;20235;-71
2022/09/23 06:15:42;;;;;;;6.37;5.77;;;;;;;8.20;nan;98260.09;5054553;28;20282;-71
2022/09/23 06:18:09;;;;;;;8.70;6.10;;;;;;;8.23;nan;98257.91;5053789;28;20216;-72
2022/09/23 06:20:35;;;;;;;8.27;6.57;;;;;;;8.30;nan;98252.63;5054130;28;20231;-71
2022/09/23 06:23:07;;;;;;;7.03;5.67;;;;;;;8.32;nan;98254.06;5053916;28;20219;-72
2022/09/23 06:25:34;;;;;;;8.70;6.00;;;;;;;8.38;nan;98250.59;5054275;28;20283;-72
2022/09/23 06:28:02;;;;;;;11.23;6.10;;;;;;;8.34;nan;98251.22;5053848;28;20636;-72
2022/09/23 06:30:28;;;;;;;9.83;6.50;;;;;;;8.36;nan;98251.81;5053453;28;20237;-70
2022/09/23 06:32:57;;;;;;;7.67;6.13;;;;;;;8.41;nan;98254.69;5054434;28;20205;-70
2022/09/23 06:35:27;;;;;;;7.80;5.83;;;;;;;8.45;nan;98251.44;5053883;28;20235;-70
2022/09/23 06:37:54;;;;;;;6.53;5.50;;;;;;;8.60;nan;98240.66;5053429;28;20209;-70
2022/09/23 06:40:21;;;;;;;6.90;5.37;;;;;;;8.67;nan;98238.81;5053548;28;20233;-70
2022/09/23 06:42:48;;;;;;;9.63;5.67;;;;;;;8.66;nan;98251.28;5053819;28;20259;-69
2022/09/23 06:45:15;;;;;;;6.90;4.70;;;;;;;8.75;nan;98251.91;5053561;28;20287;-70
2022/09/23 06:47:43;;;;;;;7.23;5.87;;;;;;;8.85;nan;98254.94;5053574;28;20660;-70
2022/09/23 06:50:13;;;;;;;6.60;5.80;;;;;;;8.90;nan;98255.16;5052747;28;20229;-70
2022/09/23 06:52:39;;;;;;;6.13;5.53;;;;;;;9.02;nan;98253.53;5053446;28;20209;-70
2022/09/23 06:55:07;;;;;;;10.93;5.90;;;;;;;9.05;nan;98258.44;5053757;28;20274;-69
2022/09/23 06:57:34;;;;;;;8.37;5.80;;;;;;;9.04;nan;98259.44;5053318;28;20668;-69
2022/09/23 07:00:02;;;;;;;9.27;5.40;;;;;;;9.08;nan;98258.84;5053673;28;20229;-69
2022/09/23 07:02:28;;;;;;;8.03;5.53;;;;;;;9.18;nan;98261.91;5053312;28;20616;-69
2022/09/23 07:04:55;;;;;;;7.10;5.30;;;;;;;9.26;nan;98253.72;5053733;28;20207;-69
2022/09/23 07:07:22;;;;;;;11.27;5.80;;;;;;;9.07;nan;98259.03;5053422;28;20235;-69
2022/09/23 07:09:49;;;;;;;9.87;6.03;;;;;;;9.20;nan;98259.88;5053476;28;20231;-69
2022/09/23 07:12:15;;;;;;;7.70;5.90;;;;;;;9.32;nan;98260.06;5053085;28;20205;-70
2022/09/23 07:14:41;;;;;;;8.67;5.67;;;;;;;9.33;nan;98257.19;5053479;28;20216;-69
2022/09/23 07:17:08;;;;;;;9.47;5.90;;;;;;;9.57;nan;98251.25;5053055;28;20229;-70
2022/09/23 07:19:35;;;;;;;8.10;5.67;;;;;;;9.68;nan;98260.41;5052824;28;20703;-70
2022/09/23 07:22:01;;;;;;;8.50;5.30;;;;;;;9.76;nan;98254.84;5053212;28;20216;-70
2022/09/23 07:24:28;;;;;;;11.00;5.73;;;;;;;9.94;nan;98250.50;5052938;28;20201;-70
2022/09/23 07:26:54;;;;;;;7.40;5.60;;;;;;;10.08;nan;98253.94;5053133;28;20241;-69
2022/09/23 07:29:21;;;;;;;6.50;5.30;;;;;;;10.03;nan;98256.41;5052866;28;20274;-69
2022/09/23 07:31:47;;;;;;;10.43;5.63;;;;;;;10.19;nan;98254.09;5053027;28;20189;-69
2022/09/23 07:34:13;;;;;;;7.07;5.77;;;;;;;10.34;nan;98249.34;5052654;28;20300;-70
2022/09/23 07:36:40;;;;;;;7.17;5.40;;;;;;;10.34;nan;98249.34;5052681;28;20313;-70
2022/09/23 07:39:09;;;;;;;8.57;5.07;;;;;;;10.48;nan;98258.03;5052706;28;20228;-70
2022/09/23 07:41:36;;;;;;;9.83;5.20;;;;;;;10.81;nan;98253.31;5052354;28;20572;-69
2022/09/23 07:44:05;;;;;;;7.27;5.30;;;;;;;10.97;nan;98250.16;5053063;28;20262;-69
2022/09/23 07:46:34;;;;;;;9.40;5.13;;;;;;;10.98;nan;98245.66;5052788;28;20661;-69
2022/09/23 07:49:02;;;;;;;9.13;5.40;;;;;;;11.08;nan;98244.13;5053189;28;20201;-70
2022/09/23 07:51:31;;;;;;;6.20;4.77;;;;;;;11.07;nan;98258.47;5053040;28;20221;-69
2022/09/23 07:53:58;;;;;;;7.70;4.70;;;;;;;11.20;nan;98247.72;5053099;28;20251;-70
2022/09/23 07:56:26;;;;;;;7.30;5.10;;;;;;;11.23;nan;98246.47;5052352;28;20692;-69
2022/09/23 07:58:59;;;;;;;8.87;5.33;;;;;;;11.21;nan;98248.53;5052703;28;20216;-69
2022/09/23 08:01:34;;;;;;;7.07;5.00;;;;;;;11.32;nan;98251.28;5053642;28;20228;-70
2022/09/23 08:04:07;;;;;;;5.30;4.80;;;;;;;11.47;nan;98245.59;5056628;28;20191;-69
2022/09/23 08:06:35;;;;;;;6.10;4.90;;;;;;;11.34;nan;98251.88;5057045;28;20189;-70
2022/09/23 08:09:02;;;;;;;7.17;5.33;;;;;;;11.55;nan;98248.81;5056747;28;20213;-69
2022/09/23 08:11:29;;;;;;;8.40;5.37;;;;;;;11.49;nan;98246.22;5056564;28;20232;-69
2022/09/23 08:13:56;;;;;;;5.83;4.50;;;;;;;11.47;nan;98251.75;5056528;28;20205;-69
2022/09/23 08:16:22;;;;;;;7.73;4.90;;;;;;;11.51;nan;98254.78;5056586;28;20221;-69
2022/09/23 08:18:49;;;;;;;9.07;4.47;;;;;;;11.47;nan;98254.41;5056646;28;20205;-69
2022/09/23 08:21:20;;;;;;;8.70;4.30;;;;;;;11.63;nan;98259.22;5056266;28;20316;-70
2022/09/23 08:23:46;;;;;;;6.63;4.20;;;;;;;11.62;nan;98254.91;5056739;28;20212;-70
2022/09/23 08:26:12;;;;;;;6.90;3.90;;;;;;;11.64;nan;98258.19;5056365;28;20578;-70
2022/09/23 08:28:39;;;;;;;5.13;3.37;;;;;;;11.80;nan;98252.25;5056193;28;20209;-70
2022/09/23 08:31:07;;;;;;;4.10;3.70;;;;;;;11.82;nan;98252.88;5056360;28;20603;-70
2022/09/23 08:33:33;;;;;;;5.50;3.83;;;;;;;11.86;nan;98256.72;5056639;28;20212;-70
2022/09/23 08:36:01;;;;;;;5.10;3.73;;;;;;;12.03;nan;98257.72;5056534;28;20584;-70
2022/09/23 08:38:28;;;;;;;4.93;3.90;;;;;;;12.25;nan;98248.22;5056465;28;20207;-70
2022/09/23 08:41:12;;;;;;;5.70;3.70;;;;;;;12.31;nan;98254.53;5056265;28;20315;-70
2022/09/23 08:43:42;;;;;;;4.93;3.60;;;;;;;12.28;nan;98250.47;5056305;28;20190;-70
2022/09/23 08:46:10;;;;;;;7.63;3.80;;;;;;;12.27;nan;98248.84;5056329;28;20275;-70
2022/09/23 08:48:44;;;;;;;6.10;3.90;;;;;;;12.31;nan;98251.84;5056366;28;20215;-70
2022/09/23 08:51:19;;;;;;;7.17;4.00;;;;;;;12.42;nan;98253.75;5055198;28;20228;-70
2022/09/23 08:53:46;;;;;;;5.43;3.67;;;;;;;12.45;nan;98255.97;5055088;28;20190;-70
2022/09/23 08:56:23;;;;;;;4.07;3.63;;;;;;;12.85;nan;98244.50;5056011;28;20231;-70
2022/09/23 08:59:14;;;;;;;6.30;4.00;;;;;;;12.74;nan;98255.16;5056283;28;20190;-70
2022/09/23 09:01:49;;;;;;;5.30;3.70;;;;;;;13.00;nan;98247.59;5056433;28;20192;-70
2022/09/23 09:04:21;;;;;;;7.83;3.73;;;;;;;12.84;nan;98250.88;5055604;28;20199;-70
2022/09/23 09:07:04;;;;;;;5.30;4.03;;;;;;;12.90;nan;98244.66;5055641;28;20640;-70
2022/09/23 09:09:38;;;;;;;4.73;3.63;;;;;;;13.05;nan;98249.56;5055655;28;20246;-71
2022/09/23 09:12:18;;;;;;;4.90;3.47;;;;;;;13.16;nan;98246.91;5055031;28;20231;-69
2022/09/23 09:15:05;;;;;;;7.80;3.63;;;;;;;13.36;nan;98242.06;5054366;28;20655;-70
2022/09/23 09:18:11;;;;;;;6.83;3.90;;;;;;;13.45;nan;98255.88;5055612;28;20208;-70
2022/09/23 09:21:04;;;;;;;6.37;3.40;;;;;;;13.70;nan;98243.91;5051958;28;20288;-70
2022/09/23 09:23:39;;;;;;;6.73;4.10;;;;;;;13.68;nan;98243.34;5055255;28;20640;-70
2022/09/23 09:26:06;;;;;;;6.33;4.13;;;;;;;13.93;nan;98241.19;5055268;28;20204;-69
2022/09/23 09:28:42;;;;;;;4.13;3.73;;;;;;;13.85;nan;98236.25;5055358;28;20208;-69
2022/09/23 09:31:14;;;;;;;6.10;3.87;;;;;;;13.90;nan;98228.31;5054909;28;20252;-71
2022/09/23 09:33:59;;;;;;;6.23;3.87;;;;;;;14.00;nan;98233.06;5055061;28;20209;-70
2022/09/23 09:36:36;;;;;;;5.00;3.70;;;;;;;14.00;nan;98231.19;5054696;28;20217;-71
2022/09/23 09:39:04;;;;;;;5.57;4.00;;;;;;;14.16;nan;98227.78;5055434;28;20201;-71
2022/09/23 09:41:31;;;;;;;4.50;3.67;;;;;;;14.13;nan;98214.91;5054971;28;20229;-71
2022/09/23 09:44:02;;;;;;;5.17;3.67;;;;;;;14.24;nan;98223.97;5054971;28;20205;-71
2022/09/23 09:46:46;;;;;;;7.40;3.67;;;;;;;14.38;nan;98215.41;5055543;28;20186;-72
2022/09/23 09:49:42;;;;;;;3.90;3.43;;;;;;;14.31;nan;98209.41;5054466;28;20645;-71
2022/09/23 09:52:24;;;;;;;5.27;3.40;;;;;;;14.63;nan;98207.84;5054777;28;20245;-71
2022/09/23 09:54:52;;;;;;;6.50;3.67;;;;;;;14.52;nan;98203.34;5054846;28;20228;-71
2022/09/23 09:57:26;;;;;;;6.97;3.50;;;;;;;14.60;nan;98202.97;5054760;28;20224;-72
2022/09/23 09:59:52;;;;;;;4.27;3.87;;;;;;;14.86;nan;98193.50;5054389;28;20229;-71
2022/09/23 10:02:27;;;;;;;5.23;3.60;;;;;;;14.87;nan;98195.97;5054510;28;20213;-70
2022/09/23 10:05:00;;;;;;;6.83;4.40;;;;;;;15.00;nan;98194.81;5054565;28;20207;-71
2022/09/23 10:07:32;;;;;;;6.17;4.03;;;;;;;14.93;nan;98202.22;5054600;28;20193;-71
2022/09/23 10:10:16;;;;;;;7.73;3.70;;;;;;;15.09;nan;98196.03;5054187;28;20593;-71
2022/09/23 10:12:46;;;;;;;6.83;4.10;;;;;;;15.25;nan;98187.97;5054243;28;20193;-71
2022/09/23 10:15:32;;;;;;;5.47;3.80;;;;;;;15.63;nan;98189.91;5054438;28;20209;-72
2022/09/23 10:18:00;;;;;;;6.23;3.47;;;;;;;15.42;nan;98190.69;5054450;28;20185;-71
2022/09/23 10:20:36;;;;;;;4.67;3.70;;;;;;;15.58;nan;98187.97;5053994;28;20324;-71
2022/09/23 10:23:08;;;;;;;5.00;3.40;;;;;;;15.64;nan;98184.31;5053679;28;20743;-72
2022/09/23 10:25:36;;;;;;;6.23;3.37;;;;;;;15.73;nan;98185.50;5054012;28;20220;-70
2022/09/23 10:28:51;;;;;;;6.03;3.73;;;;;;;15.71;nan;98184.13;5053846;28;20672;-71
2022/09/23 10:31:27;;;;;;;4.87;3.30;;;;;;;15.78;nan;98184.78;5049208;28;20225;-71
2022/09/23 10:33:56;;;;;;;6.90;3.47;;;;;;;15.71;nan;98182.28;5054030;28;20196;-71
2022/09/23 10:36:22;;;;;;;4.50;3.23;;;;;;;16.16;nan;98177.47;5053983;28;20257;-71
2022/09/23 10:38:53;;;;;;;4.93;3.07;;;;;;;16.00;nan;98182.88;5053814;28;20288;-71
2022/09/23 10:47:35;;;;;;;5.17;3.10;;;;;;;15.86;nan;98173.59;5053639;28;20583;-71
2022/09/23 10:50:32;;;;;;;7.00;3.10;;;;;;;16.18;nan;98163.78;5053619;28;20387;-71
2022/09/23 10:53:01;;;;;;;4.97;3.10;;;;;;;16.48;nan;98172.19;5053482;28;20193;-74
2022/09/23 10:55:47;;;;;;;5.87;3.20;;;;;;;16.62;nan;98160.78;5053721;28;20205;-73
2022/09/23 10:58:37;;;;;;;7.33;3.63;;;;;;;16.57;nan;98158.06;5053854;28;20193;-75
2022/09/23 11:01:30;;;;;;;3.93;3.00;;;;;;;16.62;nan;98150.06;5053568;28;20225;-74
2022/09/23 11:04:24;;;;;;;4.67;3.17;;;;;;;16.52;nan;98158.00;5054130;28;20223;-74
2022/09/23 11:07:21;;;;;;;5.97;3.47;;;;;;;16.91;nan;98156.75;5054166;28;20196;-74
2022/09/23 11:10:02;;;;;;;5.03;3.40;;;;;;;17.11;nan;98153.41;5053113;28;20221;-74
2022/09/23 11:13:11;;;;;;;3.00;2.70;;;;;;;16.72;nan;98155.50;5053562;28;20211;-73
2022/09/23 11:16:05;;;;;;;5.50;3.53;;;;;;;16.92;nan;98146.81;5042592;28;20205;-74
2022/09/23 11:18:57;;;;;;;4.70;3.20;;;;;;;16.71;nan;98148.53;5052971;28;20209;-74
2022/09/23 11:21:38;;;;;;;4.20;3.07;;;;;;;16.71;nan;98145.03;5053015;28;20233;-73
2022/09/23 11:24:49;;;;;;;4.77;3.10;;;;;;;16.81;nan;98143.22;5053256;28;20196;-74
2022/09/23 11:27:40;;;;;;;6.27;3.03;;;;;;;16.82;nan;98134.09;5052546;28;20228;-73
2022/09/23 11:30:21;;;;;;;4.17;3.10;;;;;;;16.85;nan;98132.78;5052791;28;20237;-73
2022/09/23 11:33:03;;;;;;;5.37;3.17;;;;;;;17.08;nan;98127.03;5052950;28;20216;-74
2022/09/23 11:35:31;;;;;;;4.47;3.13;;;;;;;17.15;nan;98127.66;5052733;28;20225;-74
2022/09/23 11:38:26;;;;;;;4.43;2.87;;;;;;;17.19;nan;98118.78;5052483;28;20236;-74
2022/09/23 11:41:01;;;;;;;5.20;2.70;;;;;;;17.31;nan;98116.72;5050632;28;20229;-73
2022/09/23 11:43:33;;;;;;;3.77;2.53;;;;;;;17.45;nan;98111.72;5052964;28;20189;-73
2022/09/23 11:46:12;;;;;;;4.63;2.80;;;;;;;17.23;nan;98113.72;5052993;28;20193;-72
2022/09/23 11:48:56;;;;;;;3.83;2.63;;;;;;;17.34;nan;98116.22;5052757;28;20276;-72
2022/09/23 11:51:33;;;;;;;5.60;3.13;;;;;;;17.35;nan;98115.13;5053345;28;20232;-72
2022/09/23 11:54:06;;;;;;;3.50;2.70;;;;;;;17.38;nan;98106.53;5053497;28;20189;-73
2022/09/23 11:56:45;;;;;;;5.60;2.90;;;;;;;17.31;nan;98108.66;5052812;28;20210;-73
2022/09/23 11:59:33;;;;;;;5.17;3.00;;;;;;;17.24;nan;98104.59;5052815;28;20203;-72
2022/09/23 12:02:19;;;;;;;4.47;2.90;;;;;;;17.04;nan;98104.44;5052811;28;20201;-72
2022/09/23 12:04:56;;;;;;;4.10;2.57;;;;;;;17.01;nan;98105.78;5053422;28;20197;-73
2022/09/23 12:07:29;;;;;;;4.03;2.90;;;;;;;17.40;nan;98106.31;5052372;28;20217;-73
2022/09/23 12:10:03;;;;;;;6.00;3.20;;;;;;;17.64;nan;98113.69;5053584;28;20225;-72
2022/09/23 12:12:41;;;;;;;3.73;3.40;;;;;;;17.17;nan;98106.69;5052605;28;20194;-73
2022/09/23 12:15:24;;;;;;;4.10;3.20;;;;;;;17.32;nan;98101.44;5035164;28;20231;-72
2022/09/23 12:18:00;;;;;;;5.77;3.70;;;;;;;17.56;nan;98103.44;5052506;28;20214;-72
2022/09/23 12:20:33;;;;;;;5.87;4.03;;;;;;;17.35;nan;98096.31;5051540;28;20235;-72
2022/09/23 12:23:25;;;;;;;5.03;3.70;;;;;;;17.35;nan;98096.31;5052296;28;20644;-73
2022/09/23 12:26:00;;;;;;;8.50;3.97;;;;;;;17.25;nan;98098.97;5051437;28;20192;-71
2022/09/23 12:28:36;;;;;;;4.73;3.47;;;;;;;17.43;nan;98090.50;5052575;28;20185;-72
2022/09/23 12:31:08;;;;;;;9.33;4.43;;;;;;;17.39;nan;98092.09;5051817;28;20239;-72
2022/09/23 12:33:36;;;;;;;4.00;3.60;;;;;;;17.30;nan;98095.50;5052311;28;20189;-72